sensor_id;sensor_type;location;lat;lon;timestamp;temperature;humidity
15630;DHT22;7914;50.842;0.166;2023-04-25T00:02:19;6.20;100.00
15630;DHT22;7914;50.842;0.166;2023-04-25T00:04:44;6.10;100.00
15630;DHT22;7914;50.842;0.166;2023-04-25T00:07:10;6.00;100.00
15630;DHT22;7914;50.842;0.166;2023-04-25T00:09:36;6.10;100.00
15630;DHT22;7914;50.842;0.166;2023-04-25T00:12:02;6.00;100.00
15630;DHT22;7914;50.842;0.166;2023-04-25T00:14:29;6.00;100.00
15630;DHT22;7914;50.842;0.166;2023-04-25T00:16:55;6.00;100.00
15630;DHT22;7914;50.842;0.166;2023-04-25T00:19:21;6.00;100.00
15630;DHT22;7914;50.842;0.166;2023-04-25T00:21:47;6.00;100.00
15630;DHT22;7914;50.842;0.166;2023-04-25T00:24:13;6.10;100.00
15630;DHT22;7914;50.842;0.166;2023-04-25T00:26:39;6.10;100.00
15630;DHT22;7914;50.842;0.166;2023-04-25T00:29:04;6.10;100.00
15630;DHT22;7914;50.842;0.166;2023-04-25T00:31:30;6.20;100.00
15630;DHT22;7914;50.842;0.166;2023-04-25T00:33:56;6.10;100.00
15630;DHT22;7914;50.842;0.166;2023-04-25T00:36:22;6.10;100.00
15630;DHT22;7914;50.842;0.166;2023-04-25T00:38:47;6.10;100.00
15630;DHT22;7914;50.842;0.166;2023-04-25T00:41:13;6.10;100.00
15630;DHT22;7914;50.842;0.166;2023-04-25T00:43:40;6.20;100.00
15630;DHT22;7914;50.842;0.166;2023-04-25T00:46:06;6.20;100.00
15630;DHT22;7914;50.842;0.166;2023-04-25T00:48:31;6.20;100.00
15630;DHT22;7914;50.842;0.166;2023-04-25T00:50:58;6.20;100.00
15630;DHT22;7914;50.842;0.166;2023-04-25T00:53:26;6.30;100.00
15630;DHT22;7914;50.842;0.166;2023-04-25T00:55:53;6.30;100.00
15630;DHT22;7914;50.842;0.166;2023-04-25T00:58:22;6.30;100.00
15630;DHT22;7914;50.842;0.166;2023-04-25T01:00:50;6.30;100.00
15630;DHT22;7914;50.842;0.166;2023-04-25T01:03:18;6.20;100.00
15630;DHT22;7914;50.842;0.166;2023-04-25T01:05:45;6.30;100.00
15630;DHT22;7914;50.842;0.166;2023-04-25T01:08:12;6.20;98.90
15630;DHT22;7914;50.842;0.166;2023-04-25T01:10:38;6.20;98.80
15630;DHT22;7914;50.842;0.166;2023-04-25T01:13:04;6.30;98.60
15630;DHT22;7914;50.842;0.166;2023-04-25T01:15:29;6.30;97.60
15630;DHT22;7914;50.842;0.166;2023-04-25T01:17:55;6.30;98.40
15630;DHT22;7914;50.842;0.166;2023-04-25T01:20:22;6.20;98.60
15630;DHT22;7914;50.842;0.166;2023-04-25T01:22:49;6.20;99.50
15630;DHT22;7914;50.842;0.166;2023-04-25T01:25:16;6.10;99.10
15630;DHT22;7914;50.842;0.166;2023-04-25T01:27:42;6.10;99.90
15630;DHT22;7914;50.842;0.166;2023-04-25T01:30:08;6.10;99.70
15630;DHT22;7914;50.842;0.166;2023-04-25T01:32:35;6.10;99.60
15630;DHT22;7914;50.842;0.166;2023-04-25T01:35:11;6.10;98.30
15630;DHT22;7914;50.842;0.166;2023-04-25T01:37:41;6.20;97.10
15630;DHT22;7914;50.842;0.166;2023-04-25T01:40:09;6.10;96.90
15630;DHT22;7914;50.842;0.166;2023-04-25T01:42:37;6.10;97.90
15630;DHT22;7914;50.842;0.166;2023-04-25T01:45:04;6.10;97.00
15630;DHT22;7914;50.842;0.166;2023-04-25T01:47:29;6.00;96.50
15630;DHT22;7914;50.842;0.166;2023-04-25T01:49:55;6.00;96.60
15630;DHT22;7914;50.842;0.166;2023-04-25T01:52:21;6.00;97.10
15630;DHT22;7914;50.842;0.166;2023-04-25T01:54:47;5.90;96.90
15630;DHT22;7914;50.842;0.166;2023-04-25T01:57:14;5.90;97.00
15630;DHT22;7914;50.842;0.166;2023-04-25T01:59:41;5.90;96.30
15630;DHT22;7914;50.842;0.166;2023-04-25T02:02:07;5.90;96.50
15630;DHT22;7914;50.842;0.166;2023-04-25T02:04:32;5.90;95.70
15630;DHT22;7914;50.842;0.166;2023-04-25T02:06:58;5.80;96.00
15630;DHT22;7914;50.842;0.166;2023-04-25T02:09:24;5.70;96.20
15630;DHT22;7914;50.842;0.166;2023-04-25T02:11:50;5.70;96.00
15630;DHT22;7914;50.842;0.166;2023-04-25T02:14:16;5.70;96.70
15630;DHT22;7914;50.842;0.166;2023-04-25T02:16:41;5.60;95.40
15630;DHT22;7914;50.842;0.166;2023-04-25T02:19:09;5.60;95.90
15630;DHT22;7914;50.842;0.166;2023-04-25T02:21:36;5.50;96.20
15630;DHT22;7914;50.842;0.166;2023-04-25T02:24:02;5.50;96.50
15630;DHT22;7914;50.842;0.166;2023-04-25T02:26:28;5.50;97.20
15630;DHT22;7914;50.842;0.166;2023-04-25T02:28:54;5.40;97.10
15630;DHT22;7914;50.842;0.166;2023-04-25T02:31:20;5.40;97.00
15630;DHT22;7914;50.842;0.166;2023-04-25T02:33:46;5.40;96.60
15630;DHT22;7914;50.842;0.166;2023-04-25T02:36:12;5.40;97.10
15630;DHT22;7914;50.842;0.166;2023-04-25T02:38:38;5.30;96.50
15630;DHT22;7914;50.842;0.166;2023-04-25T02:41:03;5.20;97.10
15630;DHT22;7914;50.842;0.166;2023-04-25T02:43:29;5.20;98.60
15630;DHT22;7914;50.842;0.166;2023-04-25T02:45:55;5.10;99.50
15630;DHT22;7914;50.842;0.166;2023-04-25T02:48:20;5.00;100.00
15630;DHT22;7914;50.842;0.166;2023-04-25T02:50:46;5.00;99.70
15630;DHT22;7914;50.842;0.166;2023-04-25T02:53:12;5.00;99.70
15630;DHT22;7914;50.842;0.166;2023-04-25T02:55:37;5.10;99.50
15630;DHT22;7914;50.842;0.166;2023-04-25T02:58:03;5.00;99.40
15630;DHT22;7914;50.842;0.166;2023-04-25T03:00:29;5.00;98.60
15630;DHT22;7914;50.842;0.166;2023-04-25T03:02:55;5.00;99.20
15630;DHT22;7914;50.842;0.166;2023-04-25T03:05:21;4.90;98.70
15630;DHT22;7914;50.842;0.166;2023-04-25T03:07:46;4.80;98.90
15630;DHT22;7914;50.842;0.166;2023-04-25T03:10:12;4.70;99.40
15630;DHT22;7914;50.842;0.166;2023-04-25T03:12:38;4.60;99.60
15630;DHT22;7914;50.842;0.166;2023-04-25T03:15:04;4.40;100.00
15630;DHT22;7914;50.842;0.166;2023-04-25T03:17:30;4.40;100.00
15630;DHT22;7914;50.842;0.166;2023-04-25T03:19:57;4.30;100.00
15630;DHT22;7914;50.842;0.166;2023-04-25T03:22:23;4.20;100.00
15630;DHT22;7914;50.842;0.166;2023-04-25T03:24:49;4.20;100.00
15630;DHT22;7914;50.842;0.166;2023-04-25T03:27:15;4.10;100.00
15630;DHT22;7914;50.842;0.166;2023-04-25T03:29:41;4.00;100.00
15630;DHT22;7914;50.842;0.166;2023-04-25T03:32:07;4.00;100.00
15630;DHT22;7914;50.842;0.166;2023-04-25T03:34:32;4.00;100.00
15630;DHT22;7914;50.842;0.166;2023-04-25T03:36:58;3.80;100.00
15630;DHT22;7914;50.842;0.166;2023-04-25T03:39:25;3.70;100.00
15630;DHT22;7914;50.842;0.166;2023-04-25T03:41:51;3.70;100.00
15630;DHT22;7914;50.842;0.166;2023-04-25T03:44:16;3.60;100.00
15630;DHT22;7914;50.842;0.166;2023-04-25T03:46:42;3.60;100.00
15630;DHT22;7914;50.842;0.166;2023-04-25T03:49:08;3.50;100.00
15630;DHT22;7914;50.842;0.166;2023-04-25T03:51:34;3.50;100.00
15630;DHT22;7914;50.842;0.166;2023-04-25T03:53:59;3.50;100.00
15630;DHT22;7914;50.842;0.166;2023-04-25T03:56:25;3.50;100.00
15630;DHT22;7914;50.842;0.166;2023-04-25T03:58:51;3.50;100.00
15630;DHT22;7914;50.842;0.166;2023-04-25T04:01:16;3.50;100.00
15630;DHT22;7914;50.842;0.166;2023-04-25T04:03:42;3.50;100.00
15630;DHT22;7914;50.842;0.166;2023-04-25T04:06:08;3.40;100.00
15630;DHT22;7914;50.842;0.166;2023-04-25T04:08:34;3.40;100.00
15630;DHT22;7914;50.842;0.166;2023-04-25T04:11:00;3.30;100.00
15630;DHT22;7914;50.842;0.166;2023-04-25T04:13:27;3.30;100.00
15630;DHT22;7914;50.842;0.166;2023-04-25T04:15:53;3.20;100.00
15630;DHT22;7914;50.842;0.166;2023-04-25T04:18:19;3.20;100.00
15630;DHT22;7914;50.842;0.166;2023-04-25T04:20:45;3.10;100.00
15630;DHT22;7914;50.842;0.166;2023-04-25T04:23:11;3.10;100.00
15630;DHT22;7914;50.842;0.166;2023-04-25T04:25:37;3.10;100.00
15630;DHT22;7914;50.842;0.166;2023-04-25T04:28:03;3.00;100.00
15630;DHT22;7914;50.842;0.166;2023-04-25T04:30:28;3.00;100.00
15630;DHT22;7914;50.842;0.166;2023-04-25T04:32:59;3.00;100.00
15630;DHT22;7914;50.842;0.166;2023-04-25T04:35:26;3.00;100.00
15630;DHT22;7914;50.842;0.166;2023-04-25T04:37:52;3.00;100.00
15630;DHT22;7914;50.842;0.166;2023-04-25T04:40:18;2.90;100.00
15630;DHT22;7914;50.842;0.166;2023-04-25T04:42:45;2.90;100.00
15630;DHT22;7914;50.842;0.166;2023-04-25T04:45:16;3.00;100.00
15630;DHT22;7914;50.842;0.166;2023-04-25T04:47:42;2.90;100.00
15630;DHT22;7914;50.842;0.166;2023-04-25T04:50:09;2.90;100.00
15630;DHT22;7914;50.842;0.166;2023-04-25T04:52:36;2.90;100.00
15630;DHT22;7914;50.842;0.166;2023-04-25T04:55:03;3.00;100.00
15630;DHT22;7914;50.842;0.166;2023-04-25T04:57:29;3.00;100.00
15630;DHT22;7914;50.842;0.166;2023-04-25T04:59:55;3.00;100.00
15630;DHT22;7914;50.842;0.166;2023-04-25T05:02:21;3.00;100.00
15630;DHT22;7914;50.842;0.166;2023-04-25T05:04:46;3.10;100.00
15630;DHT22;7914;50.842;0.166;2023-04-25T05:07:12;3.20;100.00
15630;DHT22;7914;50.842;0.166;2023-04-25T05:09:38;3.20;100.00
15630;DHT22;7914;50.842;0.166;2023-04-25T05:12:04;3.50;100.00
15630;DHT22;7914;50.842;0.166;2023-04-25T05:14:30;3.80;100.00
15630;DHT22;7914;50.842;0.166;2023-04-25T05:16:56;4.30;100.00
15630;DHT22;7914;50.842;0.166;2023-04-25T05:19:21;4.80;97.10
15630;DHT22;7914;50.842;0.166;2023-04-25T05:21:47;5.60;93.00
15630;DHT22;7914;50.842;0.166;2023-04-25T05:24:13;6.50;87.20
15630;DHT22;7914;50.842;0.166;2023-04-25T05:26:38;7.10;85.40
15630;DHT22;7914;50.842;0.166;2023-04-25T05:29:04;7.60;81.90
15630;DHT22;7914;50.842;0.166;2023-04-25T05:31:31;7.70;81.00
15630;DHT22;7914;50.842;0.166;2023-04-25T05:33:57;6.70;84.00
15630;DHT22;7914;50.842;0.166;2023-04-25T05:36:23;6.60;86.30
15630;DHT22;7914;50.842;0.166;2023-04-25T05:38:48;7.20;84.40
15630;DHT22;7914;50.842;0.166;2023-04-25T05:41:14;7.60;83.20
15630;DHT22;7914;50.842;0.166;2023-04-25T05:43:40;7.50;81.70
15630;DHT22;7914;50.842;0.166;2023-04-25T05:46:10;7.10;83.90
15630;DHT22;7914;50.842;0.166;2023-04-25T05:48:37;6.80;85.10
15630;DHT22;7914;50.842;0.166;2023-04-25T05:51:03;6.80;86.00
15630;DHT22;7914;50.842;0.166;2023-04-25T05:53:29;6.80;86.00
15630;DHT22;7914;50.842;0.166;2023-04-25T05:55:55;6.40;86.30
15630;DHT22;7914;50.842;0.166;2023-04-25T05:58:20;6.30;86.40
15630;DHT22;7914;50.842;0.166;2023-04-25T06:00:46;6.30;88.00
15630;DHT22;7914;50.842;0.166;2023-04-25T06:03:12;6.60;87.20
15630;DHT22;7914;50.842;0.166;2023-04-25T06:05:43;7.00;85.70
15630;DHT22;7914;50.842;0.166;2023-04-25T06:08:09;7.00;85.40
15630;DHT22;7914;50.842;0.166;2023-04-25T06:10:36;7.00;83.90
15630;DHT22;7914;50.842;0.166;2023-04-25T06:13:02;7.00;84.20
15630;DHT22;7914;50.842;0.166;2023-04-25T06:15:28;6.80;85.40
15630;DHT22;7914;50.842;0.166;2023-04-25T06:17:54;6.80;85.10
15630;DHT22;7914;50.842;0.166;2023-04-25T06:20:20;6.70;86.90
15630;DHT22;7914;50.842;0.166;2023-04-25T06:22:49;6.90;84.50
15630;DHT22;7914;50.842;0.166;2023-04-25T06:25:15;7.00;85.50
15630;DHT22;7914;50.842;0.166;2023-04-25T06:27:41;7.40;83.70
15630;DHT22;7914;50.842;0.166;2023-04-25T06:30:07;7.70;82.80
15630;DHT22;7914;50.842;0.166;2023-04-25T06:32:33;7.50;83.80
15630;DHT22;7914;50.842;0.166;2023-04-25T06:35:00;8.10;81.00
15630;DHT22;7914;50.842;0.166;2023-04-25T06:37:26;8.20;79.70
15630;DHT22;7914;50.842;0.166;2023-04-25T06:39:52;8.10;80.80
15630;DHT22;7914;50.842;0.166;2023-04-25T06:42:17;7.80;81.00
15630;DHT22;7914;50.842;0.166;2023-04-25T06:44:43;7.80;81.90
15630;DHT22;7914;50.842;0.166;2023-04-25T06:47:09;8.30;77.80
15630;DHT22;7914;50.842;0.166;2023-04-25T06:49:35;8.90;74.20
15630;DHT22;7914;50.842;0.166;2023-04-25T06:52:00;9.10;74.00
15630;DHT22;7914;50.842;0.166;2023-04-25T06:54:26;8.60;74.70
15630;DHT22;7914;50.842;0.166;2023-04-25T06:56:55;8.20;74.70
15630;DHT22;7914;50.842;0.166;2023-04-25T06:59:21;7.80;76.50
15630;DHT22;7914;50.842;0.166;2023-04-25T07:01:46;7.50;76.20
15630;DHT22;7914;50.842;0.166;2023-04-25T07:04:12;7.40;78.70
15630;DHT22;7914;50.842;0.166;2023-04-25T07:06:38;7.60;78.80
15630;DHT22;7914;50.842;0.166;2023-04-25T07:09:08;8.20;75.80
15630;DHT22;7914;50.842;0.166;2023-04-25T07:11:35;8.20;75.00
15630;DHT22;7914;50.842;0.166;2023-04-25T07:14:01;7.80;74.60
15630;DHT22;7914;50.842;0.166;2023-04-25T07:16:27;7.80;76.80
15630;DHT22;7914;50.842;0.166;2023-04-25T07:18:53;8.10;76.70
15630;DHT22;7914;50.842;0.166;2023-04-25T07:21:19;8.70;74.50
15630;DHT22;7914;50.842;0.166;2023-04-25T07:23:45;9.20;72.60
15630;DHT22;7914;50.842;0.166;2023-04-25T07:26:11;8.90;70.00
15630;DHT22;7914;50.842;0.166;2023-04-25T07:28:36;8.50;73.00
15630;DHT22;7914;50.842;0.166;2023-04-25T07:31:02;8.30;73.80
15630;DHT22;7914;50.842;0.166;2023-04-25T07:33:28;8.30;74.80
15630;DHT22;7914;50.842;0.166;2023-04-25T07:35:54;8.60;74.70
15630;DHT22;7914;50.842;0.166;2023-04-25T07:38:21;8.70;73.90
15630;DHT22;7914;50.842;0.166;2023-04-25T07:40:50;8.70;73.90
15630;DHT22;7914;50.842;0.166;2023-04-25T07:43:15;8.60;73.10
15630;DHT22;7914;50.842;0.166;2023-04-25T07:45:46;8.50;73.40
15630;DHT22;7914;50.842;0.166;2023-04-25T07:48:17;8.40;73.80
15630;DHT22;7914;50.842;0.166;2023-04-25T07:50:44;8.40;74.90
15630;DHT22;7914;50.842;0.166;2023-04-25T07:53:09;8.50;72.50
15630;DHT22;7914;50.842;0.166;2023-04-25T07:55:35;8.60;73.60
15630;DHT22;7914;50.842;0.166;2023-04-25T07:58:02;8.30;72.60
15630;DHT22;7914;50.842;0.166;2023-04-25T08:00:29;8.30;74.00
15630;DHT22;7914;50.842;0.166;2023-04-25T08:02:54;8.50;73.80
15630;DHT22;7914;50.842;0.166;2023-04-25T08:05:20;8.60;73.20
15630;DHT22;7914;50.842;0.166;2023-04-25T08:07:46;8.80;74.80
15630;DHT22;7914;50.842;0.166;2023-04-25T08:10:12;8.90;72.30
15630;DHT22;7914;50.842;0.166;2023-04-25T08:12:37;9.00;72.50
15630;DHT22;7914;50.842;0.166;2023-04-25T08:15:04;9.00;73.30
15630;DHT22;7914;50.842;0.166;2023-04-25T08:17:30;9.10;71.20
15630;DHT22;7914;50.842;0.166;2023-04-25T08:19:56;9.10;72.30
15630;DHT22;7914;50.842;0.166;2023-04-25T08:22:22;9.10;71.50
15630;DHT22;7914;50.842;0.166;2023-04-25T08:24:48;9.20;71.70
15630;DHT22;7914;50.842;0.166;2023-04-25T08:27:14;9.10;70.60
15630;DHT22;7914;50.842;0.166;2023-04-25T08:29:39;8.90;70.90
15630;DHT22;7914;50.842;0.166;2023-04-25T08:32:05;8.70;70.30
15630;DHT22;7914;50.842;0.166;2023-04-25T08:34:31;8.80;72.50
15630;DHT22;7914;50.842;0.166;2023-04-25T08:36:56;9.10;72.10
15630;DHT22;7914;50.842;0.166;2023-04-25T08:39:22;9.30;70.20
15630;DHT22;7914;50.842;0.166;2023-04-25T08:41:48;9.40;69.80
15630;DHT22;7914;50.842;0.166;2023-04-25T08:44:14;9.30;68.60
15630;DHT22;7914;50.842;0.166;2023-04-25T08:46:41;9.30;68.70
15630;DHT22;7914;50.842;0.166;2023-04-25T08:49:08;9.40;68.80
15630;DHT22;7914;50.842;0.166;2023-04-25T08:51:45;9.70;70.60
15630;DHT22;7914;50.842;0.166;2023-04-25T08:54:15;9.50;67.90
15630;DHT22;7914;50.842;0.166;2023-04-25T08:56:43;9.40;68.20
15630;DHT22;7914;50.842;0.166;2023-04-25T08:59:11;9.20;68.10
15630;DHT22;7914;50.842;0.166;2023-04-25T09:01:37;9.30;67.40
15630;DHT22;7914;50.842;0.166;2023-04-25T09:04:03;9.30;67.30
15630;DHT22;7914;50.842;0.166;2023-04-25T09:06:29;9.60;66.80
15630;DHT22;7914;50.842;0.166;2023-04-25T09:09:06;9.60;63.90
15630;DHT22;7914;50.842;0.166;2023-04-25T09:11:34;9.50;66.60
15630;DHT22;7914;50.842;0.166;2023-04-25T09:14:16;9.90;64.80
15630;DHT22;7914;50.842;0.166;2023-04-25T09:16:58;9.50;64.70
15630;DHT22;7914;50.842;0.166;2023-04-25T09:21:59;9.30;64.70
15630;DHT22;7914;50.842;0.166;2023-04-25T09:24:40;9.30;66.80
15630;DHT22;7914;50.842;0.166;2023-04-25T09:27:12;9.50;65.60
15630;DHT22;7914;50.842;0.166;2023-04-25T09:29:39;9.40;63.80
15630;DHT22;7914;50.842;0.166;2023-04-25T09:32:14;9.80;66.90
15630;DHT22;7914;50.842;0.166;2023-04-25T09:34:48;10.40;62.80
15630;DHT22;7914;50.842;0.166;2023-04-25T09:37:26;10.40;62.10
15630;DHT22;7914;50.842;0.166;2023-04-25T09:39:59;10.70;61.50
15630;DHT22;7914;50.842;0.166;2023-04-25T09:42:28;10.70;61.70
15630;DHT22;7914;50.842;0.166;2023-04-25T09:44:57;10.80;64.20
15630;DHT22;7914;50.842;0.166;2023-04-25T09:47:25;11.00;62.20
15630;DHT22;7914;50.842;0.166;2023-04-25T09:49:53;11.00;60.40
15630;DHT22;7914;50.842;0.166;2023-04-25T09:52:23;11.10;58.60
15630;DHT22;7914;50.842;0.166;2023-04-25T09:54:50;10.60;57.20
15630;DHT22;7914;50.842;0.166;2023-04-25T09:57:21;9.60;60.30
15630;DHT22;7914;50.842;0.166;2023-04-25T09:59:53;9.70;62.10
15630;DHT22;7914;50.842;0.166;2023-04-25T10:02:25;9.80;62.10
15630;DHT22;7914;50.842;0.166;2023-04-25T10:04:53;10.20;64.10
15630;DHT22;7914;50.842;0.166;2023-04-25T10:07:22;10.30;61.10
15630;DHT22;7914;50.842;0.166;2023-04-25T10:10:03;10.30;63.30
15630;DHT22;7914;50.842;0.166;2023-04-25T10:12:32;10.40;57.60
15630;DHT22;7914;50.842;0.166;2023-04-25T10:14:59;10.00;57.80
15630;DHT22;7914;50.842;0.166;2023-04-25T10:17:28;10.00;59.80
15630;DHT22;7914;50.842;0.166;2023-04-25T10:19:54;10.50;58.20
15630;DHT22;7914;50.842;0.166;2023-04-25T10:22:31;11.30;55.60
15630;DHT22;7914;50.842;0.166;2023-04-25T10:24:58;11.70;53.00
15630;DHT22;7914;50.842;0.166;2023-04-25T10:27:26;12.20;53.20
15630;DHT22;7914;50.842;0.166;2023-04-25T10:30:10;11.90;53.90
15630;DHT22;7914;50.842;0.166;2023-04-25T10:32:38;11.80;54.40
15630;DHT22;7914;50.842;0.166;2023-04-25T10:35:18;11.60;51.70
15630;DHT22;7914;50.842;0.166;2023-04-25T10:38:10;11.30;53.30
15630;DHT22;7914;50.842;0.166;2023-04-25T10:40:36;11.10;53.90
15630;DHT22;7914;50.842;0.166;2023-04-25T10:43:43;11.30;53.30
15630;DHT22;7914;50.842;0.166;2023-04-25T10:46:30;11.40;52.90
15630;DHT22;7914;50.842;0.166;2023-04-25T10:48:58;11.90;51.30
15630;DHT22;7914;50.842;0.166;2023-04-25T10:51:26;11.80;51.10
15630;DHT22;7914;50.842;0.166;2023-04-25T10:56:22;11.50;51.60
15630;DHT22;7914;50.842;0.166;2023-04-25T10:58:48;11.60;53.90
15630;DHT22;7914;50.842;0.166;2023-04-25T11:01:15;12.00;49.80
15630;DHT22;7914;50.842;0.166;2023-04-25T11:03:44;11.60;52.10
15630;DHT22;7914;50.842;0.166;2023-04-25T11:06:36;11.90;53.10
15630;DHT22;7914;50.842;0.166;2023-04-25T11:09:03;11.50;51.50
15630;DHT22;7914;50.842;0.166;2023-04-25T11:11:36;11.70;51.70
15630;DHT22;7914;50.842;0.166;2023-04-25T11:14:02;11.50;50.20
15630;DHT22;7914;50.842;0.166;2023-04-25T11:16:28;10.90;50.10
15630;DHT22;7914;50.842;0.166;2023-04-25T11:18:56;10.60;48.80
15630;DHT22;7914;50.842;0.166;2023-04-25T11:21:22;10.30;50.30
15630;DHT22;7914;50.842;0.166;2023-04-25T11:23:48;10.10;50.90
15630;DHT22;7914;50.842;0.166;2023-04-25T11:26:13;10.40;54.60
15630;DHT22;7914;50.842;0.166;2023-04-25T11:28:40;10.80;50.10
15630;DHT22;7914;50.842;0.166;2023-04-25T11:31:06;10.90;50.70
15630;DHT22;7914;50.842;0.166;2023-04-25T11:33:32;11.30;50.30
15630;DHT22;7914;50.842;0.166;2023-04-25T11:35:58;11.60;51.60
15630;DHT22;7914;50.842;0.166;2023-04-25T11:38:24;11.70;50.30
15630;DHT22;7914;50.842;0.166;2023-04-25T11:40:52;11.10;49.40
15630;DHT22;7914;50.842;0.166;2023-04-25T11:43:20;11.10;51.20
15630;DHT22;7914;50.842;0.166;2023-04-25T11:45:49;11.40;50.20
15630;DHT22;7914;50.842;0.166;2023-04-25T11:48:16;11.90;51.80
15630;DHT22;7914;50.842;0.166;2023-04-25T11:50:42;11.90;53.40
15630;DHT22;7914;50.842;0.166;2023-04-25T11:53:08;12.00;50.40
15630;DHT22;7914;50.842;0.166;2023-04-25T11:55:34;12.10;49.10
15630;DHT22;7914;50.842;0.166;2023-04-25T11:58:00;11.40;49.00
15630;DHT22;7914;50.842;0.166;2023-04-25T12:00:27;11.50;50.50
15630;DHT22;7914;50.842;0.166;2023-04-25T12:02:54;11.80;46.50
15630;DHT22;7914;50.842;0.166;2023-04-25T12:05:24;12.00;49.00
15630;DHT22;7914;50.842;0.166;2023-04-25T12:07:50;11.70;48.60
15630;DHT22;7914;50.842;0.166;2023-04-25T12:10:17;11.60;49.90
15630;DHT22;7914;50.842;0.166;2023-04-25T12:12:45;11.40;49.30
15630;DHT22;7914;50.842;0.166;2023-04-25T12:15:22;11.20;51.00
15630;DHT22;7914;50.842;0.166;2023-04-25T12:17:50;11.30;48.90
15630;DHT22;7914;50.842;0.166;2023-04-25T12:20:18;11.10;49.30
15630;DHT22;7914;50.842;0.166;2023-04-25T12:22:46;11.00;50.90
15630;DHT22;7914;50.842;0.166;2023-04-25T12:28:14;11.00;50.20
15630;DHT22;7914;50.842;0.166;2023-04-25T12:30:53;11.70;51.20
15630;DHT22;7914;50.842;0.166;2023-04-25T12:33:19;12.20;48.30
15630;DHT22;7914;50.842;0.166;2023-04-25T12:35:44;13.00;45.10
15630;DHT22;7914;50.842;0.166;2023-04-25T12:38:11;13.30;46.30
15630;DHT22;7914;50.842;0.166;2023-04-25T12:40:36;13.30;47.00
15630;DHT22;7914;50.842;0.166;2023-04-25T12:43:02;12.60;46.90
15630;DHT22;7914;50.842;0.166;2023-04-25T12:45:28;12.20;48.90
15630;DHT22;7914;50.842;0.166;2023-04-25T12:47:53;11.80;48.20
15630;DHT22;7914;50.842;0.166;2023-04-25T12:50:19;11.40;50.50
15630;DHT22;7914;50.842;0.166;2023-04-25T12:52:45;11.10;50.30
15630;DHT22;7914;50.842;0.166;2023-04-25T12:55:11;11.00;50.40
15630;DHT22;7914;50.842;0.166;2023-04-25T12:57:37;10.90;51.90
15630;DHT22;7914;50.842;0.166;2023-04-25T13:00:03;11.30;49.10
15630;DHT22;7914;50.842;0.166;2023-04-25T13:02:29;11.70;49.60
15630;DHT22;7914;50.842;0.166;2023-04-25T13:04:55;12.10;49.60
15630;DHT22;7914;50.842;0.166;2023-04-25T13:07:21;12.40;46.40
15630;DHT22;7914;50.842;0.166;2023-04-25T13:09:46;12.60;45.90
15630;DHT22;7914;50.842;0.166;2023-04-25T13:12:12;12.90;46.60
15630;DHT22;7914;50.842;0.166;2023-04-25T13:14:38;13.40;44.40
15630;DHT22;7914;50.842;0.166;2023-04-25T13:17:03;12.80;45.80
15630;DHT22;7914;50.842;0.166;2023-04-25T13:19:30;12.30;46.30
15630;DHT22;7914;50.842;0.166;2023-04-25T13:21:56;12.30;47.00
15630;DHT22;7914;50.842;0.166;2023-04-25T13:24:21;12.20;46.50
15630;DHT22;7914;50.842;0.166;2023-04-25T13:26:47;11.90;47.90
15630;DHT22;7914;50.842;0.166;2023-04-25T13:29:13;11.80;49.50
15630;DHT22;7914;50.842;0.166;2023-04-25T13:31:38;12.00;47.80
15630;DHT22;7914;50.842;0.166;2023-04-25T13:34:04;11.70;49.30
15630;DHT22;7914;50.842;0.166;2023-04-25T13:36:30;11.40;51.10
15630;DHT22;7914;50.842;0.166;2023-04-25T13:38:57;11.30;50.10
15630;DHT22;7914;50.842;0.166;2023-04-25T13:41:22;11.40;52.60
15630;DHT22;7914;50.842;0.166;2023-04-25T13:43:48;11.40;48.90
15630;DHT22;7914;50.842;0.166;2023-04-25T13:46:14;11.50;50.50
15630;DHT22;7914;50.842;0.166;2023-04-25T13:48:41;11.20;49.70
15630;DHT22;7914;50.842;0.166;2023-04-25T13:51:12;11.40;50.40
15630;DHT22;7914;50.842;0.166;2023-04-25T13:53:37;11.60;48.40
15630;DHT22;7914;50.842;0.166;2023-04-25T13:56:04;11.90;49.10
15630;DHT22;7914;50.842;0.166;2023-04-25T13:58:30;11.90;49.80
15630;DHT22;7914;50.842;0.166;2023-04-25T14:00:56;12.40;50.30
15630;DHT22;7914;50.842;0.166;2023-04-25T14:03:21;12.60;48.70
15630;DHT22;7914;50.842;0.166;2023-04-25T14:05:47;13.20;47.00
15630;DHT22;7914;50.842;0.166;2023-04-25T14:08:13;13.00;47.20
15630;DHT22;7914;50.842;0.166;2023-04-25T14:10:38;12.70;50.60
15630;DHT22;7914;50.842;0.166;2023-04-25T14:13:04;12.90;54.70
15630;DHT22;7914;50.842;0.166;2023-04-25T14:15:34;13.10;54.70
15630;DHT22;7914;50.842;0.166;2023-04-25T14:18:00;12.90;55.10
15630;DHT22;7914;50.842;0.166;2023-04-25T14:20:26;12.40;55.50
15630;DHT22;7914;50.842;0.166;2023-04-25T14:22:52;12.20;55.30
15630;DHT22;7914;50.842;0.166;2023-04-25T14:25:20;12.30;56.80
15630;DHT22;7914;50.842;0.166;2023-04-25T14:27:46;12.20;56.40
15630;DHT22;7914;50.842;0.166;2023-04-25T14:30:15;12.20;57.10
15630;DHT22;7914;50.842;0.166;2023-04-25T14:32:41;12.30;58.00
15630;DHT22;7914;50.842;0.166;2023-04-25T14:35:07;12.50;57.60
15630;DHT22;7914;50.842;0.166;2023-04-25T14:37:33;12.40;59.10
15630;DHT22;7914;50.842;0.166;2023-04-25T14:39:59;12.50;58.50
15630;DHT22;7914;50.842;0.166;2023-04-25T14:42:24;12.60;58.20
15630;DHT22;7914;50.842;0.166;2023-04-25T14:44:51;13.10;56.10
15630;DHT22;7914;50.842;0.166;2023-04-25T14:47:17;12.70;55.30
15630;DHT22;7914;50.842;0.166;2023-04-25T14:49:42;12.20;55.30
15630;DHT22;7914;50.842;0.166;2023-04-25T14:52:09;12.60;56.10
15630;DHT22;7914;50.842;0.166;2023-04-25T14:54:34;12.80;56.30
15630;DHT22;7914;50.842;0.166;2023-04-25T14:57:00;12.90;55.70
15630;DHT22;7914;50.842;0.166;2023-04-25T14:59:26;12.60;54.70
15630;DHT22;7914;50.842;0.166;2023-04-25T15:01:53;12.50;56.50
15630;DHT22;7914;50.842;0.166;2023-04-25T15:04:19;12.10;53.60
15630;DHT22;7914;50.842;0.166;2023-04-25T15:06:44;11.60;56.50
15630;DHT22;7914;50.842;0.166;2023-04-25T15:09:11;11.90;57.60
15630;DHT22;7914;50.842;0.166;2023-04-25T15:11:37;12.20;59.20
15630;DHT22;7914;50.842;0.166;2023-04-25T15:14:03;12.50;59.10
15630;DHT22;7914;50.842;0.166;2023-04-25T15:16:29;12.70;56.30
15630;DHT22;7914;50.842;0.166;2023-04-25T15:18:56;12.50;56.70
15630;DHT22;7914;50.842;0.166;2023-04-25T15:21:21;12.00;54.70
15630;DHT22;7914;50.842;0.166;2023-04-25T15:23:47;11.60;55.50
15630;DHT22;7914;50.842;0.166;2023-04-25T15:26:13;11.70;56.50
15630;DHT22;7914;50.842;0.166;2023-04-25T15:28:39;11.60;56.80
15630;DHT22;7914;50.842;0.166;2023-04-25T15:31:04;11.70;59.80
15630;DHT22;7914;50.842;0.166;2023-04-25T15:33:30;11.60;58.40
15630;DHT22;7914;50.842;0.166;2023-04-25T15:35:57;11.60;57.60
15630;DHT22;7914;50.842;0.166;2023-04-25T15:38:23;11.40;57.90
15630;DHT22;7914;50.842;0.166;2023-04-25T15:40:49;11.30;58.90
15630;DHT22;7914;50.842;0.166;2023-04-25T15:43:15;11.50;58.70
15630;DHT22;7914;50.842;0.166;2023-04-25T15:45:41;11.00;59.20
15630;DHT22;7914;50.842;0.166;2023-04-25T15:48:07;11.20;61.10
15630;DHT22;7914;50.842;0.166;2023-04-25T15:50:33;11.00;60.50
15630;DHT22;7914;50.842;0.166;2023-04-25T15:53:00;10.80;59.70
15630;DHT22;7914;50.842;0.166;2023-04-25T15:55:26;10.80;60.20
15630;DHT22;7914;50.842;0.166;2023-04-25T15:57:52;10.70;60.90
15630;DHT22;7914;50.842;0.166;2023-04-25T16:00:18;10.60;59.80